createdAt,value
2023-04-21T00:02:16.348Z,7.47
2023-04-21T00:05:25.099Z,7.41
2023-04-21T00:08:31.498Z,7.39
2023-04-21T00:11:36.986Z,7.36
2023-04-21T00:14:43.465Z,7.37
2023-04-21T00:17:48.959Z,7.37
2023-04-21T00:20:58.416Z,7.33
2023-04-21T00:24:03.975Z,7.34
2023-04-21T00:27:11.743Z,7.30
2023-04-21T00:30:17.928Z,7.33
2023-04-21T00:33:24.556Z,7.28
2023-04-21T00:36:32.866Z,7.25
2023-04-21T00:39:39.180Z,7.26
2023-04-21T00:42:44.740Z,7.26
2023-04-21T00:45:51.075Z,7.23
2023-04-21T00:48:56.624Z,7.22
2023-04-21T00:52:08.512Z,7.06
2023-04-21T00:55:14.402Z,7.10
2023-04-21T00:58:21.927Z,7.04
2023-04-21T01:01:27.859Z,7.00
2023-04-21T01:04:39.361Z,7.00
2023-04-21T01:07:47.964Z,7.00
2023-04-21T01:10:54.785Z,7.02
2023-04-21T01:14:00.619Z,7.00
2023-04-21T01:17:08.412Z,7.03
2023-04-21T01:20:17.422Z,6.67
2023-04-21T01:23:26.808Z,7.11
2023-04-21T01:26:32.355Z,7.13
2023-04-21T01:29:39.302Z,7.13
2023-04-21T01:32:46.699Z,7.12
2023-04-21T01:35:53.191Z,7.09
2023-04-21T01:39:01.847Z,7.07
2023-04-21T01:42:10.273Z,7.04
2023-04-21T01:45:17.229Z,7.01
2023-04-21T01:48:22.965Z,7.00
2023-04-21T01:51:30.106Z,6.98
2023-04-21T01:54:39.063Z,6.86
2023-04-21T01:57:46.666Z,7.01
2023-04-21T02:00:52.488Z,7.02
2023-04-21T02:03:59.817Z,7.01
2023-04-21T02:07:05.982Z,6.98
2023-04-21T02:10:16.455Z,6.55
2023-04-21T02:13:23.329Z,6.98
2023-04-21T02:16:30.785Z,6.97
2023-04-21T02:19:36.426Z,6.93
2023-04-21T02:22:43.309Z,6.89
2023-04-21T02:25:51.679Z,6.88
2023-04-21T02:28:58.089Z,6.83
2023-04-21T02:32:14.261Z,6.68
2023-04-21T02:35:30.627Z,6.81
2023-04-21T02:38:36.470Z,6.79
2023-04-21T02:41:45.668Z,6.79
2023-04-21T02:44:51.274Z,6.76
2023-04-21T02:47:59.028Z,6.74
2023-04-21T02:51:04.810Z,6.71
2023-04-21T02:54:11.977Z,6.70
2023-04-21T02:57:20.206Z,6.69
2023-04-21T03:00:27.136Z,6.65
2023-04-21T03:03:33.069Z,6.64
2023-04-21T03:06:39.616Z,6.63
2023-04-21T03:09:45.437Z,6.61
2023-04-21T03:12:54.812Z,6.63
2023-04-21T03:16:00.543Z,6.62
2023-04-21T03:19:07.146Z,6.61
2023-04-21T03:22:12.842Z,6.61
2023-04-21T03:25:19.260Z,6.62
2023-04-21T03:28:27.785Z,6.64
2023-04-21T03:31:34.166Z,6.66
2023-04-21T03:34:39.935Z,6.68
2023-04-21T03:37:46.711Z,6.69
2023-04-21T03:40:52.938Z,6.71
2023-04-21T03:44:03.182Z,6.67
2023-04-21T03:47:08.786Z,6.66
2023-04-21T03:50:15.536Z,6.58
2023-04-21T03:53:20.986Z,6.52
2023-04-21T03:56:27.363Z,6.45
2023-04-21T03:59:35.668Z,6.42
2023-04-21T04:02:42.675Z,6.41
2023-04-21T04:05:48.254Z,6.40
2023-04-21T04:08:55.043Z,6.39
2023-04-21T04:12:00.674Z,6.39
2023-04-21T04:15:11.528Z,6.39
2023-04-21T04:18:17.269Z,6.38
2023-04-21T04:21:23.637Z,6.38
2023-04-21T04:24:30.189Z,6.38
2023-04-21T04:27:37.219Z,6.40
2023-04-21T04:30:45.774Z,6.46
2023-04-21T04:33:54.924Z,6.52
2023-04-21T04:37:01.490Z,6.58
2023-04-21T04:40:10.491Z,6.60
2023-04-21T04:43:17.194Z,6.58
2023-04-21T04:46:28.638Z,6.60
2023-04-21T04:49:34.191Z,6.66
2023-04-21T04:52:40.991Z,6.73
2023-04-21T04:55:47.422Z,6.79
2023-04-21T04:58:53.894Z,6.89
2023-04-21T05:02:03.126Z,6.98
2023-04-21T05:05:11.041Z,7.08
2023-04-21T05:08:18.057Z,7.15
2023-04-21T05:11:24.625Z,7.21
2023-04-21T05:14:30.742Z,7.32
2023-04-21T05:17:39.988Z,7.37
2023-04-21T05:20:45.525Z,7.43
2023-04-21T05:23:51.811Z,7.55
2023-04-21T05:26:57.293Z,7.69
2023-04-21T05:30:03.645Z,7.82
2023-04-21T05:33:12.348Z,7.95
2023-04-21T05:36:20.498Z,8.09
2023-04-21T05:39:26.130Z,8.33
2023-04-21T05:42:32.445Z,8.45
2023-04-21T05:45:43.838Z,8.54
2023-04-21T05:48:52.990Z,8.75
2023-04-21T05:51:58.427Z,8.83
2023-04-21T05:55:05.958Z,8.93
2023-04-21T05:58:11.451Z,8.98
2023-04-21T06:01:17.724Z,9.07
2023-04-21T06:04:26.922Z,9.20
2023-04-21T06:07:33.837Z,9.36
2023-04-21T06:10:39.800Z,9.46
2023-04-21T06:13:46.287Z,9.56
2023-04-21T06:16:51.773Z,9.64
2023-04-21T06:20:01.367Z,9.72
2023-04-21T06:23:06.867Z,9.75
2023-04-21T06:26:14.062Z,9.73
2023-04-21T06:29:19.554Z,9.76
2023-04-21T06:32:26.116Z,9.78
2023-04-21T06:35:34.700Z,9.80
2023-04-21T06:38:43.419Z,9.83
2023-04-21T06:41:48.831Z,9.90
2023-04-21T06:44:56.837Z,9.99
2023-04-21T06:48:02.309Z,10.16
2023-04-21T06:51:11.488Z,10.34
2023-04-21T06:54:17.239Z,10.44
2023-04-21T06:57:23.609Z,10.52
2023-04-21T07:00:29.444Z,10.64
2023-04-21T07:03:36.680Z,10.78
2023-04-21T07:06:45.333Z,10.88
2023-04-21T07:09:52.024Z,10.94
2023-04-21T07:12:57.822Z,11.00
2023-04-21T07:16:04.387Z,11.07
2023-04-21T07:19:09.814Z,11.21
2023-04-21T07:22:18.900Z,11.37
2023-04-21T07:25:24.727Z,11.50
2023-04-21T07:28:31.554Z,11.62
2023-04-21T07:31:37.161Z,11.78
2023-04-21T07:34:43.939Z,11.90
2023-04-21T07:37:52.240Z,12.01
2023-04-21T07:40:58.672Z,12.06
2023-04-21T07:44:04.294Z,12.15
2023-04-21T07:47:10.751Z,12.29
2023-04-21T07:50:16.537Z,12.40
2023-04-21T07:53:25.660Z,12.44
2023-04-21T07:56:31.715Z,12.48
2023-04-21T07:59:38.121Z,12.54
2023-04-21T08:02:44.085Z,12.59
2023-04-21T08:05:51.115Z,12.72
2023-04-21T08:08:59.766Z,12.84
2023-04-21T08:12:06.100Z,12.98
2023-04-21T08:15:12.784Z,13.03
2023-04-21T08:18:22.086Z,13.03
2023-04-21T08:21:30.818Z,13.11
2023-04-21T08:24:40.444Z,13.15
2023-04-21T08:27:45.973Z,13.16
2023-04-21T08:30:52.390Z,13.21
2023-04-21T08:34:02.039Z,13.26
2023-04-21T08:37:09.381Z,13.26
2023-04-21T08:40:17.885Z,13.31
2023-04-21T08:43:24.281Z,13.34
2023-04-21T08:46:31.927Z,13.37
2023-04-21T08:49:41.002Z,13.45
2023-04-21T08:52:46.559Z,13.50
2023-04-21T08:56:10.614Z,13.47
2023-04-21T08:59:17.080Z,13.49
2023-04-21T09:02:23.662Z,13.45
2023-04-21T09:05:31.809Z,13.42
2023-04-21T09:08:41.526Z,13.46
2023-04-21T09:11:58.825Z,13.46
2023-04-21T09:15:09.051Z,13.53
2023-04-21T09:18:19.371Z,13.56
2023-04-21T09:21:32.835Z,13.67
2023-04-21T09:24:38.509Z,13.79
2023-04-21T09:27:47.742Z,13.75
2023-04-21T09:30:59.426Z,13.67
2023-04-21T09:34:06.146Z,13.70
2023-04-21T09:37:18.753Z,13.59
2023-04-21T09:40:25.996Z,13.81
2023-04-21T09:43:34.224Z,13.87
2023-04-21T09:46:40.816Z,13.89
2023-04-21T09:49:50.733Z,14.02
2023-04-21T09:52:59.594Z,14.13
2023-04-21T09:56:09.541Z,14.20
2023-04-21T09:59:28.478Z,14.31
2023-04-21T10:02:38.896Z,14.38
2023-04-21T10:05:46.785Z,14.42
2023-04-21T10:08:56.641Z,14.37
2023-04-21T10:12:09.494Z,14.26
2023-04-21T10:15:38.285Z,14.04
2023-04-21T10:18:48.893Z,13.96
2023-04-21T10:21:54.889Z,13.97
2023-04-21T10:25:03.168Z,14.07
2023-04-21T10:28:10.231Z,14.24
2023-04-21T10:31:37.251Z,14.24
2023-04-21T10:34:43.198Z,14.15
2023-04-21T10:37:52.594Z,14.15
2023-04-21T10:40:58.108Z,14.19
2023-04-21T10:44:15.211Z,14.03
2023-04-21T10:47:30.771Z,13.64
2023-04-21T10:50:38.985Z,14.41
2023-04-21T10:53:47.640Z,14.40
2023-04-21T10:56:56.961Z,14.43
2023-04-21T11:00:06.184Z,14.54
2023-04-21T11:03:15.423Z,14.66
2023-04-21T11:06:22.021Z,14.71
2023-04-21T11:09:28.343Z,14.62
2023-04-21T11:12:36.176Z,14.53
2023-04-21T11:15:42.549Z,14.63
2023-04-21T11:18:51.900Z,14.75
2023-04-21T11:21:58.283Z,14.76
2023-04-21T11:25:04.736Z,14.74
2023-04-21T11:28:11.347Z,14.63
2023-04-21T11:31:17.170Z,14.69
2023-04-21T11:34:27.111Z,14.84
2023-04-21T11:37:33.014Z,14.91
2023-04-21T11:40:49.799Z,14.94
2023-04-21T11:43:56.266Z,15.02
2023-04-21T11:47:03.033Z,15.05
2023-04-21T11:50:13.009Z,14.87
2023-04-21T11:53:19.982Z,14.90
2023-04-21T11:56:25.512Z,14.90
2023-04-21T11:59:32.172Z,14.97
2023-04-21T12:02:38.151Z,14.86
2023-04-21T12:05:47.465Z,14.86
2023-04-21T12:09:00.475Z,14.92
2023-04-21T12:12:08.810Z,14.94
2023-04-21T12:15:23.762Z,14.01
2023-04-21T12:18:31.296Z,15.14
2023-04-21T12:21:42.056Z,15.27
2023-04-21T12:24:50.573Z,15.33
2023-04-21T12:28:02.404Z,15.27
2023-04-21T12:31:09.352Z,15.15
2023-04-21T12:34:15.417Z,15.09
2023-04-21T12:37:25.041Z,14.84
2023-04-21T12:40:30.523Z,14.85
2023-04-21T12:43:36.853Z,14.74
2023-04-21T12:46:43.011Z,14.65
2023-04-21T12:49:49.604Z,14.60
2023-04-21T12:52:58.178Z,14.60
2023-04-21T12:56:05.459Z,14.68
2023-04-21T12:59:11.886Z,14.78
2023-04-21T13:02:18.493Z,15.08
2023-04-21T13:05:23.998Z,15.36
2023-04-21T13:08:33.376Z,15.65
2023-04-21T13:11:38.875Z,15.80
2023-04-21T13:14:45.533Z,15.77
2023-04-21T13:17:51.080Z,15.63
2023-04-21T13:20:57.679Z,15.49
2023-04-21T13:24:06.315Z,15.38
2023-04-21T13:27:12.897Z,15.36
2023-04-21T13:30:19.709Z,15.37
2023-04-21T13:33:27.230Z,15.30
2023-04-21T13:36:33.661Z,15.31
2023-04-21T13:39:43.102Z,15.37
2023-04-21T13:42:49.050Z,15.40
2023-04-21T13:45:55.678Z,15.27
2023-04-21T13:49:01.396Z,15.31
2023-04-21T13:52:07.803Z,15.32
2023-04-21T13:55:16.654Z,15.30
2023-04-21T13:58:23.064Z,15.37
2023-04-21T14:01:28.617Z,15.40
2023-04-21T14:04:35.595Z,15.38
2023-04-21T14:07:41.467Z,15.49
2023-04-21T14:10:51.075Z,15.47
2023-04-21T14:14:09.089Z,15.37
2023-04-21T14:17:17.284Z,15.40
2023-04-21T14:20:23.079Z,15.54
2023-04-21T14:23:29.428Z,15.67
2023-04-21T14:26:38.055Z,15.81
2023-04-21T14:29:44.465Z,15.98
2023-04-21T14:32:50.296Z,16.10
2023-04-21T14:35:56.678Z,16.06
2023-04-21T14:39:02.218Z,15.94
2023-04-21T14:42:11.328Z,15.86
2023-04-21T14:45:16.928Z,15.84
2023-04-21T14:48:24.460Z,15.67
2023-04-21T14:51:30.018Z,15.62
2023-04-21T14:54:36.770Z,15.54
2023-04-21T14:57:45.029Z,15.49
2023-04-21T15:00:51.555Z,15.48
2023-04-21T15:03:58.014Z,15.52
2023-04-21T15:07:04.743Z,15.63
2023-04-21T15:10:12.434Z,15.71
2023-04-21T15:13:22.962Z,15.76
2023-04-21T15:16:28.694Z,15.73
2023-04-21T15:19:35.256Z,15.65
2023-04-21T15:22:41.516Z,15.62
2023-04-21T15:25:47.936Z,15.63
2023-04-21T15:28:56.208Z,15.65
2023-04-21T15:32:02.586Z,15.66
2023-04-21T15:35:09.894Z,15.66
2023-04-21T15:38:16.264Z,15.75
2023-04-21T15:41:22.085Z,15.84
2023-04-21T15:44:31.768Z,15.89
2023-04-21T15:47:37.337Z,15.67
2023-04-21T15:50:45.417Z,15.62
2023-04-21T15:53:52.485Z,15.69
2023-04-21T15:56:58.957Z,16.04
2023-04-21T16:00:10.664Z,16.35
2023-04-21T16:03:18.183Z,16.69
2023-04-21T16:06:24.394Z,17.13
2023-04-21T16:09:30.877Z,17.52
2023-04-21T16:12:36.754Z,17.93
2023-04-21T16:15:46.164Z,18.36
2023-04-21T16:18:51.987Z,18.52
2023-04-21T16:21:58.402Z,18.48
2023-04-21T16:25:04.007Z,18.49
2023-04-21T16:28:11.715Z,18.53
2023-04-21T16:31:20.065Z,18.51
2023-04-21T16:34:26.577Z,18.53
2023-04-21T16:37:32.110Z,18.23
2023-04-21T16:40:38.463Z,17.90
2023-04-21T16:43:44.541Z,17.69
2023-04-21T16:46:53.957Z,17.31
2023-04-21T16:49:59.718Z,16.97
2023-04-21T16:53:06.374Z,16.72
2023-04-21T16:56:12.052Z,16.53
2023-04-21T16:59:19.599Z,16.36
2023-04-21T17:02:28.458Z,16.18
2023-04-21T17:05:34.899Z,15.96
2023-04-21T17:08:40.908Z,15.76
2023-04-21T17:11:47.262Z,15.47
2023-04-21T17:14:52.801Z,15.33
2023-04-21T17:18:02.471Z,15.20
2023-04-21T17:21:08.920Z,15.11
2023-04-21T17:24:15.200Z,14.98
2023-04-21T17:27:21.417Z,14.82
2023-04-21T17:30:28.128Z,14.63
2023-04-21T17:33:36.610Z,14.48
2023-04-21T17:36:44.857Z,14.38
2023-04-21T17:39:50.605Z,14.28
2023-04-21T17:42:56.957Z,14.17
2023-04-21T17:46:02.988Z,13.99
2023-04-21T17:49:12.375Z,13.83
2023-04-21T17:52:17.867Z,13.65
2023-04-21T17:55:24.335Z,13.51
2023-04-21T17:58:30.458Z,13.40
2023-04-21T18:01:37.157Z,13.28
2023-04-21T18:04:46.538Z,13.14
2023-04-21T18:07:53.370Z,13.05
2023-04-21T18:10:58.971Z,12.98
2023-04-21T18:14:05.382Z,12.90
2023-04-21T18:17:11.210Z,12.84
2023-04-21T18:20:20.410Z,12.80
2023-04-21T18:23:26.034Z,12.74
2023-04-21T18:26:32.818Z,12.70
2023-04-21T18:29:38.379Z,12.65
2023-04-21T18:32:44.906Z,12.60
2023-04-21T18:35:53.900Z,12.53
2023-04-21T18:39:00.523Z,12.47
2023-04-21T18:42:06.304Z,12.37
2023-04-21T18:45:13.954Z,12.32
2023-04-21T18:48:19.454Z,12.24
2023-04-21T18:51:31.962Z,12.14
2023-04-21T18:54:38.008Z,12.04
2023-04-21T18:57:44.642Z,11.95
2023-04-21T19:00:51.281Z,11.87
2023-04-21T19:03:57.814Z,11.81
2023-04-21T19:07:10.191Z,11.74
2023-04-21T19:10:16.671Z,11.67
2023-04-21T19:13:22.606Z,11.64
2023-04-21T19:16:31.890Z,11.60
2023-04-21T19:19:37.520Z,11.55
2023-04-21T19:22:46.761Z,11.52
2023-04-21T19:25:54.892Z,11.52
2023-04-21T19:29:01.724Z,11.49
2023-04-21T19:32:07.598Z,11.45
2023-04-21T19:35:14.303Z,11.43
2023-04-21T19:38:23.657Z,11.40
2023-04-21T19:41:30.084Z,11.36
2023-04-21T19:44:35.997Z,11.32
2023-04-21T19:47:42.858Z,11.30
2023-04-21T19:50:48.759Z,11.26
2023-04-21T19:54:09.929Z,11.19
2023-04-21T19:57:17.750Z,11.16
2023-04-21T20:00:24.592Z,11.13
2023-04-21T20:03:30.572Z,11.10
2023-04-21T20:06:37.285Z,11.07
2023-04-21T20:09:45.714Z,11.07
2023-04-21T20:12:52.227Z,11.06
2023-04-21T20:15:58.406Z,11.06
2023-04-21T20:19:05.027Z,11.04
2023-04-21T20:22:10.800Z,11.00
2023-04-21T20:25:20.217Z,10.96
2023-04-21T20:28:27.774Z,10.91
2023-04-21T20:31:34.575Z,10.85
2023-04-21T20:34:40.147Z,10.78
2023-04-21T20:37:47.594Z,10.72
2023-04-21T20:40:56.725Z,10.66
2023-04-21T20:44:03.591Z,10.57
2023-04-21T20:47:09.342Z,10.53
2023-04-21T20:50:15.864Z,10.47
2023-04-21T20:53:22.462Z,10.42
2023-04-21T20:56:31.794Z,10.37
2023-04-21T20:59:37.775Z,10.30
2023-04-21T21:02:44.813Z,10.22
2023-04-21T21:05:51.202Z,10.17
2023-04-21T21:08:57.907Z,10.13
2023-04-21T21:12:06.360Z,10.09
2023-04-21T21:15:14.281Z,10.05
2023-04-21T21:18:20.040Z,10.03
2023-04-21T21:21:26.705Z,9.98
2023-04-21T21:24:32.192Z,9.95
2023-04-21T21:27:41.376Z,9.91
2023-04-21T21:30:46.882Z,9.85
2023-04-21T21:33:53.573Z,9.77
2023-04-21T21:36:59.145Z,9.71
2023-04-21T21:40:06.340Z,9.67
2023-04-21T21:43:16.456Z,9.63
2023-04-21T21:46:22.992Z,9.62
2023-04-21T21:49:28.729Z,9.62
2023-04-21T21:52:35.931Z,9.59
2023-04-21T21:55:41.509Z,9.56
2023-04-21T21:58:51.030Z,9.51
2023-04-21T22:01:57.198Z,9.49
2023-04-21T22:05:04.640Z,9.40
2023-04-21T22:08:10.220Z,9.42
2023-04-21T22:11:16.724Z,9.42
2023-04-21T22:14:25.191Z,9.42
2023-04-21T22:17:31.913Z,9.36
2023-04-21T22:20:37.606Z,9.35
2023-04-21T22:23:44.096Z,9.31
2023-04-21T22:26:51.560Z,9.24
2023-04-21T22:30:00.932Z,9.23
2023-04-21T22:33:07.542Z,9.21
2023-04-21T22:36:13.962Z,9.18
2023-04-21T22:39:19.961Z,9.14
2023-04-21T22:42:26.795Z,9.09
2023-04-21T22:45:35.378Z,9.03
2023-04-21T22:48:41.861Z,8.96
2023-04-21T22:51:47.573Z,8.90
2023-04-21T22:54:54.008Z,8.85
2023-04-21T22:57:59.729Z,8.77
2023-04-21T23:01:09.434Z,8.72
2023-04-21T23:04:15.223Z,8.66
2023-04-21T23:07:21.588Z,8.62
2023-04-21T23:10:29.413Z,8.59
2023-04-21T23:13:36.032Z,8.57
2023-04-21T23:16:44.772Z,8.54
2023-04-21T23:19:51.330Z,8.49
2023-04-21T23:22:57.083Z,8.45
2023-04-21T23:26:03.524Z,8.42
2023-04-21T23:29:09.120Z,8.37
2023-04-21T23:32:18.403Z,8.31
2023-04-21T23:35:24.021Z,8.26
2023-04-21T23:38:30.649Z,8.17
2023-04-21T23:41:36.426Z,8.10
2023-04-21T23:44:43.370Z,8.01
2023-04-21T23:47:51.638Z,7.94
2023-04-21T23:50:58.303Z,7.91
2023-04-21T23:54:04.141Z,7.85
2023-04-21T23:57:10.433Z,7.81
